sensor_id;sensor_type;location;lat;lon;timestamp;pressure;altitude;pressure_sealevel;temperature
32827;BMP280;51059;42.058;27.986;2024-01-30T00:00:32;78836.38;;;-131.54
32827;BMP280;51059;42.058;27.986;2024-01-30T00:02:58;78826.69;;;-131.54
32827;BMP280;51059;42.058;27.986;2024-01-30T00:05:23;78830.56;;;-131.54
32827;BMP280;51059;42.058;27.986;2024-01-30T00:07:50;78848.03;;;-131.54
32827;BMP280;51059;42.058;27.986;2024-01-30T00:10:16;78917.81;;;-131.54
32827;BMP280;51059;42.058;27.986;2024-01-30T00:12:42;79028.34;;;-131.54
32827;BMP280;51059;42.058;27.986;2024-01-30T00:16:00;60162.44;;;-131.55
32827;BMP280;51059;42.058;27.986;2024-01-30T00:19:18;60162.44;;;-131.55
32827;BMP280;51059;42.058;27.986;2024-01-30T00:21:50;79511.22;;;-131.54
32827;BMP280;51059;42.058;27.986;2024-01-30T00:24:16;79660.56;;;-131.54
32827;BMP280;51059;42.058;27.986;2024-01-30T00:26:42;79656.69;;;-131.54
32827;BMP280;51059;42.058;27.986;2024-01-30T00:29:08;79720.69;;;-131.54
32827;BMP280;51059;42.058;27.986;2024-01-30T00:31:35;79738.13;;;-131.54
32827;BMP280;51059;42.058;27.986;2024-01-30T00:34:01;79773.06;;;-131.54
32827;BMP280;51059;42.058;27.986;2024-01-30T00:36:27;79742.00;;;-131.54
32827;BMP280;51059;42.058;27.986;2024-01-30T00:38:55;79759.47;;;-131.54
32827;BMP280;51059;42.058;27.986;2024-01-30T00:41:22;79794.38;;;-131.54
32827;BMP280;51059;42.058;27.986;2024-01-30T00:43:48;79776.94;;;-131.54
32827;BMP280;51059;42.058;27.986;2024-01-30T00:46:13;79788.56;;;-131.54
32827;BMP280;51059;42.058;27.986;2024-01-30T00:49:00;79788.56;;;-131.54
32827;BMP280;51059;42.058;27.986;2024-01-30T00:51:26;79804.09;;;-131.54
32827;BMP280;51059;42.058;27.986;2024-01-30T00:53:54;79755.59;;;-131.54
32827;BMP280;51059;42.058;27.986;2024-01-30T00:56:20;79765.28;;;-131.54
32827;BMP280;51059;42.058;27.986;2024-01-30T00:58:46;79786.63;;;-131.54
32827;BMP280;51059;42.058;27.986;2024-01-30T01:01:12;79718.75;;;-131.54
32827;BMP280;51059;42.058;27.986;2024-01-30T01:03:38;79784.69;;;-131.54
32827;BMP280;51059;42.058;27.986;2024-01-30T01:06:06;79780.81;;;-131.54
32827;BMP280;51059;42.058;27.986;2024-01-30T01:08:31;79784.69;;;-131.54
32827;BMP280;51059;42.058;27.986;2024-01-30T01:10:57;79802.13;;;-131.54
32827;BMP280;51059;42.058;27.986;2024-01-30T01:13:23;79788.56;;;-131.54
32827;BMP280;51059;42.058;27.986;2024-01-30T01:15:49;79765.28;;;-131.54
32827;BMP280;51059;42.058;27.986;2024-01-30T01:18:15;79800.19;;;-131.54
32827;BMP280;51059;42.058;27.986;2024-01-30T01:20:41;79807.97;;;-131.54
32827;BMP280;51059;42.058;27.986;2024-01-30T01:23:07;79784.69;;;-131.54
32827;BMP280;51059;42.058;27.986;2024-01-30T01:25:32;79809.91;;;-131.54
32827;BMP280;51059;42.058;27.986;2024-01-30T01:27:58;79802.13;;;-131.54
32827;BMP280;51059;42.058;27.986;2024-01-30T01:30:26;79827.34;;;-131.54
32827;BMP280;51059;42.058;27.986;2024-01-30T01:32:54;79831.22;;;-131.54
32827;BMP280;51059;42.058;27.986;2024-01-30T01:35:24;79827.34;;;-131.54
32827;BMP280;51059;42.058;27.986;2024-01-30T01:37:53;79786.63;;;-131.54
32827;BMP280;51059;42.058;27.986;2024-01-30T01:40:24;79776.94;;;-131.54
32827;BMP280;51059;42.058;27.986;2024-01-30T01:42:51;79743.94;;;-131.54
32827;BMP280;51059;42.058;27.986;2024-01-30T01:45:19;79765.28;;;-131.54
32827;BMP280;51059;42.058;27.986;2024-01-30T01:47:51;79844.81;;;-131.54
32827;BMP280;51059;42.058;27.986;2024-01-30T01:50:18;79854.50;;;-131.54
32827;BMP280;51059;42.058;27.986;2024-01-30T01:52:48;79831.22;;;-131.54
32827;BMP280;51059;42.058;27.986;2024-01-30T01:55:15;79796.31;;;-131.54
32827;BMP280;51059;42.058;27.986;2024-01-30T01:57:44;79780.81;;;-131.54
32827;BMP280;51059;42.058;27.986;2024-01-30T02:00:10;79815.72;;;-131.54
32827;BMP280;51059;42.058;27.986;2024-01-30T02:02:39;79790.50;;;-131.54
32827;BMP280;51059;42.058;27.986;2024-01-30T02:05:05;79811.84;;;-131.54
32827;BMP280;51059;42.058;27.986;2024-01-30T02:07:31;79815.72;;;-131.54
32827;BMP280;51059;42.058;27.986;2024-01-30T02:09:57;79833.19;;;-131.54
32827;BMP280;51059;42.058;27.986;2024-01-30T02:12:23;79870.03;;;-131.54
32827;BMP280;51059;42.058;27.986;2024-01-30T02:14:50;79788.56;;;-131.54
32827;BMP280;51059;42.058;27.986;2024-01-30T02:17:16;79970.88;;;-131.54
32827;BMP280;51059;42.058;27.986;2024-01-30T02:19:42;79939.84;;;-131.54
32827;BMP280;51059;42.058;27.986;2024-01-30T02:22:08;79891.38;;;-131.54
32827;BMP280;51059;42.058;27.986;2024-01-30T02:24:34;79990.28;;;-131.54
32827;BMP280;51059;42.058;27.986;2024-01-30T02:27:31;79990.28;;;-131.54
32827;BMP280;51059;42.058;27.986;2024-01-30T02:29:57;79846.75;;;-131.54
32827;BMP280;51059;42.058;27.986;2024-01-30T02:32:24;79776.94;;;-131.54
32827;BMP280;51059;42.058;27.986;2024-01-30T04:42:43;78886.78;;;-131.54
32827;BMP280;51059;42.058;27.986;2024-01-30T04:45:09;78976.00;;;-131.54
32827;BMP280;51059;42.058;27.986;2024-01-30T04:47:35;79100.09;;;-131.54
32827;BMP280;51059;42.058;27.986;2024-01-30T04:50:01;79195.13;;;-131.54
32827;BMP280;51059;42.058;27.986;2024-01-30T05:04:08;79292.06;;;-131.54
32827;BMP280;51059;42.058;27.986;2024-01-30T05:06:34;79385.16;;;-131.54
32827;BMP280;51059;42.058;27.986;2024-01-30T05:09:00;79458.84;;;-131.54
32827;BMP280;51059;42.058;27.986;2024-01-30T05:11:26;79621.75;;;-131.54
32827;BMP280;51059;42.058;27.986;2024-01-30T05:13:52;79645.03;;;-131.54
32827;BMP280;51059;42.058;27.986;2024-01-30T05:16:18;79641.16;;;-131.54
32827;BMP280;51059;42.058;27.986;2024-01-30T05:18:44;79582.97;;;-131.54
32827;BMP280;51059;42.058;27.986;2024-01-30T05:21:10;79565.53;;;-131.54
32827;BMP280;51059;42.058;27.986;2024-01-30T05:23:36;79579.09;;;-131.54
32827;BMP280;51059;42.058;27.986;2024-01-30T05:26:02;79573.28;;;-131.54
32827;BMP280;51059;42.058;27.986;2024-01-30T05:28:32;79571.34;;;-131.54
32827;BMP280;51059;42.058;27.986;2024-01-30T05:30:58;79575.22;;;-131.54
32827;BMP280;51059;42.058;27.986;2024-01-30T05:33:24;79548.06;;;-131.54
32827;BMP280;51059;42.058;27.986;2024-01-30T05:35:50;79515.09;;;-131.54
32827;BMP280;51059;42.058;27.986;2024-01-30T05:38:20;79550.00;;;-131.54
32827;BMP280;51059;42.058;27.986;2024-01-30T05:40:47;79604.31;;;-131.54
32827;BMP280;51059;42.058;27.986;2024-01-30T05:43:14;79600.44;;;-131.54
32827;BMP280;51059;42.058;27.986;2024-01-30T05:45:40;79631.47;;;-131.54
32827;BMP280;51059;42.058;27.986;2024-01-30T05:48:06;79668.31;;;-131.54
32827;BMP280;51059;42.058;27.986;2024-01-30T05:50:32;79681.88;;;-131.54
32827;BMP280;51059;42.058;27.986;2024-01-30T05:52:58;79635.34;;;-131.54
32827;BMP280;51059;42.058;27.986;2024-01-30T05:55:24;79594.63;;;-131.54
32827;BMP280;51059;42.058;27.986;2024-01-30T05:57:50;79621.75;;;-131.54
32827;BMP280;51059;42.058;27.986;2024-01-30T06:28:41;79586.84;;;-131.54
32827;BMP280;51059;42.058;27.986;2024-01-30T06:31:07;79594.63;;;-131.54
32827;BMP280;51059;42.058;27.986;2024-01-30T06:33:32;79658.63;;;-131.54
32827;BMP280;51059;42.058;27.986;2024-01-30T06:35:58;79687.72;;;-131.54
32827;BMP280;51059;42.058;27.986;2024-01-30T06:38:24;79664.44;;;-131.54
32827;BMP280;51059;42.058;27.986;2024-01-30T06:40:50;79641.16;;;-131.54
32827;BMP280;51059;42.058;27.986;2024-01-30T06:43:17;79608.19;;;-131.54
32827;BMP280;51059;42.058;27.986;2024-01-30T06:45:43;79590.72;;;-131.54
32827;BMP280;51059;42.058;27.986;2024-01-30T06:48:09;79612.06;;;-131.54
32827;BMP280;51059;42.058;27.986;2024-01-30T06:50:35;79641.16;;;-131.54
32827;BMP280;51059;42.058;27.986;2024-01-30T06:53:01;79645.03;;;-131.54
32827;BMP280;51059;42.058;27.986;2024-01-30T06:55:27;79598.50;;;-131.54
32827;BMP280;51059;42.058;27.986;2024-01-30T06:57:53;79658.63;;;-131.54
32827;BMP280;51059;42.058;27.986;2024-01-30T07:00:19;79596.56;;;-131.54
32827;BMP280;51059;42.058;27.986;2024-01-30T07:02:45;79670.25;;;-131.54
32827;BMP280;51059;42.058;27.986;2024-01-30T07:05:11;79679.94;;;-131.54
32827;BMP280;51059;42.058;27.986;2024-01-30T07:07:38;79710.97;;;-131.54
32827;BMP280;51059;42.058;27.986;2024-01-30T07:10:06;79724.56;;;-131.54
32827;BMP280;51059;42.058;27.986;2024-01-30T07:12:32;79734.25;;;-131.54
32827;BMP280;51059;42.058;27.986;2024-01-30T07:14:58;79679.94;;;-131.54
32827;BMP280;51059;42.058;27.986;2024-01-30T07:17:25;79676.06;;;-131.54
32827;BMP280;51059;42.058;27.986;2024-01-30T07:19:51;79784.69;;;-131.54
32827;BMP280;51059;42.058;27.986;2024-01-30T07:22:16;79763.34;;;-131.54
32827;BMP280;51059;42.058;27.986;2024-01-30T07:24:43;79726.50;;;-131.54
32827;BMP280;51059;42.058;27.986;2024-01-30T07:27:14;79683.81;;;-131.54
32827;BMP280;51059;42.058;27.986;2024-01-30T07:29:40;79730.38;;;-131.54
32827;BMP280;51059;42.058;27.986;2024-01-30T07:32:06;79664.44;;;-131.54
32827;BMP280;51059;42.058;27.986;2024-01-30T07:34:32;79695.47;;;-131.54
32827;BMP280;51059;42.058;27.986;2024-01-30T07:36:58;79712.91;;;-131.54
32827;BMP280;51059;42.058;27.986;2024-01-30T07:39:24;79699.34;;;-131.54
32827;BMP280;51059;42.058;27.986;2024-01-30T07:41:49;79747.84;;;-131.54
32827;BMP280;51059;42.058;27.986;2024-01-30T07:44:15;79759.47;;;-131.54
32827;BMP280;51059;42.058;27.986;2024-01-30T07:46:41;79776.94;;;-131.54
32827;BMP280;51059;42.058;27.986;2024-01-30T07:49:07;79776.94;;;-131.54
32827;BMP280;51059;42.058;27.986;2024-01-30T07:51:33;79771.09;;;-131.54
32827;BMP280;51059;42.058;27.986;2024-01-30T07:53:59;79736.19;;;-131.54
32827;BMP280;51059;42.058;27.986;2024-01-30T07:56:24;79716.81;;;-131.54
32827;BMP280;51059;42.058;27.986;2024-01-30T07:58:50;79716.81;;;-131.54
32827;BMP280;51059;42.058;27.986;2024-01-30T08:01:17;79726.50;;;-131.54
32827;BMP280;51059;42.058;27.986;2024-01-30T08:03:43;79792.44;;;-131.54
32827;BMP280;51059;42.058;27.986;2024-01-30T08:06:09;79833.19;;;-131.54
32827;BMP280;51059;42.058;27.986;2024-01-30T08:08:35;79848.69;;;-131.54
32827;BMP280;51059;42.058;27.986;2024-01-30T08:11:01;79899.13;;;-131.54
32827;BMP280;51059;42.058;27.986;2024-01-30T08:13:27;79901.06;;;-131.54
32827;BMP280;51059;42.058;27.986;2024-01-30T08:15:53;79916.59;;;-131.54
32827;BMP280;51059;42.058;27.986;2024-01-30T08:18:20;79920.47;;;-131.54
32827;BMP280;51059;42.058;27.986;2024-01-30T08:20:45;79924.34;;;-131.54
32827;BMP280;51059;42.058;27.986;2024-01-30T08:23:11;79904.94;;;-131.54
32827;BMP280;51059;42.058;27.986;2024-01-30T08:25:37;79908.81;;;-131.54
32827;BMP280;51059;42.058;27.986;2024-01-30T08:28:03;79893.31;;;-131.54
32827;BMP280;51059;42.058;27.986;2024-01-30T08:30:29;79895.25;;;-131.54
32827;BMP280;51059;42.058;27.986;2024-01-30T08:32:56;79901.06;;;-131.54
32827;BMP280;51059;42.058;27.986;2024-01-30T08:35:22;79901.06;;;-131.54
32827;BMP280;51059;42.058;27.986;2024-01-30T08:37:48;79877.78;;;-131.54
32827;BMP280;51059;42.058;27.986;2024-01-30T08:40:14;79873.91;;;-131.54
32827;BMP280;51059;42.058;27.986;2024-01-30T08:42:40;79908.81;;;-131.54
32827;BMP280;51059;42.058;27.986;2024-01-30T08:45:06;79930.16;;;-131.54
32827;BMP280;51059;42.058;27.986;2024-01-30T08:47:32;80102.78;;;-131.54
32827;BMP280;51059;42.058;27.986;2024-01-30T08:49:59;80129.94;;;-131.54
32827;BMP280;51059;42.058;27.986;2024-01-30T08:52:24;80036.84;;;-131.54
32827;BMP280;51059;42.058;27.986;2024-01-30T08:54:50;79974.78;;;-131.54
32827;BMP280;51059;42.058;27.986;2024-01-30T08:57:16;79934.03;;;-131.54
32827;BMP280;51059;42.058;27.986;2024-01-30T09:49:26;79868.09;;;-131.54
32827;BMP280;51059;42.058;27.986;2024-01-30T12:01:26;79893.31;;;-131.54
32827;BMP280;51059;42.058;27.986;2024-01-30T12:03:52;79877.78;;;-131.54
32827;BMP280;51059;42.058;27.986;2024-01-30T12:06:18;79881.66;;;-131.54
32827;BMP280;51059;42.058;27.986;2024-01-30T12:09:05;79901.06;;;-131.54
32827;BMP280;51059;42.058;27.986;2024-01-30T12:11:55;79873.91;;;-131.54
32827;BMP280;51059;42.058;27.986;2024-01-30T12:14:22;79870.03;;;-131.54
32827;BMP280;51059;42.058;27.986;2024-01-30T12:16:48;79864.22;;;-131.54
32827;BMP280;51059;42.058;27.986;2024-01-30T12:19:26;79850.63;;;-131.54
32827;BMP280;51059;42.058;27.986;2024-01-30T12:21:56;79819.59;;;-131.54
32827;BMP280;51059;42.058;27.986;2024-01-30T12:24:25;79829.28;;;-131.54
32827;BMP280;51059;42.058;27.986;2024-01-30T12:26:51;79825.41;;;-131.54
32827;BMP280;51059;42.058;27.986;2024-01-30T12:29:20;79807.97;;;-131.54
32827;BMP280;51059;42.058;27.986;2024-01-30T12:31:47;79817.66;;;-131.54
32827;BMP280;51059;42.058;27.986;2024-01-30T12:34:16;79804.09;;;-131.54
32827;BMP280;51059;42.058;27.986;2024-01-30T12:36:43;79804.09;;;-131.54
32827;BMP280;51059;42.058;27.986;2024-01-30T12:39:12;79904.94;;;-131.54
32827;BMP280;51059;42.058;27.986;2024-01-30T12:41:40;79858.38;;;-131.54
32827;BMP280;51059;42.058;27.986;2024-01-30T12:44:07;79842.88;;;-131.54
32827;BMP280;51059;42.058;27.986;2024-01-30T12:46:34;79881.66;;;-131.54
32827;BMP280;51059;42.058;27.986;2024-01-30T12:49:00;79709.03;;;-131.54
32827;BMP280;51059;42.058;27.986;2024-01-30T12:51:26;79361.88;;;-131.54
32827;BMP280;51059;42.058;27.986;2024-01-30T12:53:52;60162.44;;;-131.55
32827;BMP280;51059;42.058;27.986;2024-01-30T12:56:18;60162.44;;;-131.55
32827;BMP280;51059;42.058;27.986;2024-01-30T12:58:45;79742.00;;;-131.54
32827;BMP280;51059;42.058;27.986;2024-01-30T13:01:11;79757.53;;;-131.54
32827;BMP280;51059;42.058;27.986;2024-01-30T13:03:37;79833.19;;;-131.54
32827;BMP280;51059;42.058;27.986;2024-01-30T13:06:03;79840.94;;;-131.54
32827;BMP280;51059;42.058;27.986;2024-01-30T13:08:29;79881.66;;;-131.54
32827;BMP280;51059;42.058;27.986;2024-01-30T13:10:55;79912.69;;;-131.54
32827;BMP280;51059;42.058;27.986;2024-01-30T13:13:21;79974.78;;;-131.54
32827;BMP280;51059;42.058;27.986;2024-01-30T13:15:48;79965.06;;;-131.54
32827;BMP280;51059;42.058;27.986;2024-01-30T13:18:14;79955.38;;;-131.54
32827;BMP280;51059;42.058;27.986;2024-01-30T13:20:39;79906.88;;;-131.54
32827;BMP280;51059;42.058;27.986;2024-01-30T13:23:05;79868.09;;;-131.54
32827;BMP280;51059;42.058;27.986;2024-01-30T13:25:31;79819.59;;;-131.54
32827;BMP280;51059;42.058;27.986;2024-01-30T13:27:57;79839.00;;;-131.54
32827;BMP280;51059;42.058;27.986;2024-01-30T13:30:23;79844.81;;;-131.54
32827;BMP280;51059;42.058;27.986;2024-01-30T13:32:49;79839.00;;;-131.54
32827;BMP280;51059;42.058;27.986;2024-01-30T13:35:15;79821.53;;;-131.54
32827;BMP280;51059;42.058;27.986;2024-01-30T13:37:41;79809.91;;;-131.54
32827;BMP280;51059;42.058;27.986;2024-01-30T13:40:08;79819.59;;;-131.54
32827;BMP280;51059;42.058;27.986;2024-01-30T13:42:34;79831.22;;;-131.54
32827;BMP280;51059;42.058;27.986;2024-01-30T13:45:01;79829.28;;;-131.54
32827;BMP280;51059;42.058;27.986;2024-01-30T13:47:27;79804.09;;;-131.54
32827;BMP280;51059;42.058;27.986;2024-01-30T13:49:53;79848.69;;;-131.54
32827;BMP280;51059;42.058;27.986;2024-01-30T13:52:20;79881.66;;;-131.54
32827;BMP280;51059;42.058;27.986;2024-01-30T13:54:45;79858.38;;;-131.54
32827;BMP280;51059;42.058;27.986;2024-01-30T13:57:11;79866.16;;;-131.54
32827;BMP280;51059;42.058;27.986;2024-01-30T13:59:38;79862.28;;;-131.54
32827;BMP280;51059;42.058;27.986;2024-01-30T14:02:04;79854.50;;;-131.54
32827;BMP280;51059;42.058;27.986;2024-01-30T14:04:29;79835.13;;;-131.54
32827;BMP280;51059;42.058;27.986;2024-01-30T14:06:55;79850.63;;;-131.54
32827;BMP280;51059;42.058;27.986;2024-01-30T14:09:22;79858.38;;;-131.54
32827;BMP280;51059;42.058;27.986;2024-01-30T14:11:48;79833.19;;;-131.54
32827;BMP280;51059;42.058;27.986;2024-01-30T14:14:14;79827.34;;;-131.54
32827;BMP280;51059;42.058;27.986;2024-01-30T14:16:41;79839.00;;;-131.54
32827;BMP280;51059;42.058;27.986;2024-01-30T14:19:07;79821.53;;;-131.54
32827;BMP280;51059;42.058;27.986;2024-01-30T14:21:33;79823.47;;;-131.54
32827;BMP280;51059;42.058;27.986;2024-01-30T14:23:59;79831.22;;;-131.54
32827;BMP280;51059;42.058;27.986;2024-01-30T14:26:25;79823.47;;;-131.54
32827;BMP280;51059;42.058;27.986;2024-01-30T14:28:51;79819.59;;;-131.54
32827;BMP280;51059;42.058;27.986;2024-01-30T14:31:17;79833.19;;;-131.54
32827;BMP280;51059;42.058;27.986;2024-01-30T14:33:44;79819.59;;;-131.54
32827;BMP280;51059;42.058;27.986;2024-01-30T14:36:10;79837.06;;;-131.54
32827;BMP280;51059;42.058;27.986;2024-01-30T14:38:36;79840.94;;;-131.54
32827;BMP280;51059;42.058;27.986;2024-01-30T14:41:02;79904.94;;;-131.54
32827;BMP280;51059;42.058;27.986;2024-01-30T14:43:29;79928.22;;;-131.54
32827;BMP280;51059;42.058;27.986;2024-01-30T14:45:55;79908.81;;;-131.54
32827;BMP280;51059;42.058;27.986;2024-01-30T14:48:21;79873.91;;;-131.54
32827;BMP280;51059;42.058;27.986;2024-01-30T14:50:47;79852.56;;;-131.54
32827;BMP280;51059;42.058;27.986;2024-01-30T14:53:14;79829.28;;;-131.54
32827;BMP280;51059;42.058;27.986;2024-01-30T14:55:40;79862.28;;;-131.54
32827;BMP280;51059;42.058;27.986;2024-01-30T14:58:06;79889.44;;;-131.54
32827;BMP280;51059;42.058;27.986;2024-01-30T15:00:32;79908.81;;;-131.54
32827;BMP280;51059;42.058;27.986;2024-01-30T15:03:16;101641.88;;;-131.54
32827;BMP280;51059;42.058;27.986;2024-01-30T15:05:42;60162.44;;;-131.55
32827;BMP280;51059;42.058;27.986;2024-01-30T15:08:38;60162.44;;;-131.55
32827;BMP280;51059;42.058;27.986;2024-01-30T15:11:56;60162.44;;;-131.55
32827;BMP280;51059;42.058;27.986;2024-01-30T15:15:15;60162.44;;;-131.55
32827;BMP280;51059;42.058;27.986;2024-01-30T15:17:54;60162.44;;;-131.55
32827;BMP280;51059;42.058;27.986;2024-01-30T15:21:13;60162.44;;;-131.55
32827;BMP280;51059;42.058;27.986;2024-01-30T15:24:31;60162.44;;;-131.55
32827;BMP280;51059;42.058;27.986;2024-01-30T15:27:50;60162.44;;;-131.55
32827;BMP280;51059;42.058;27.986;2024-01-30T15:31:09;60162.44;;;-131.55
32827;BMP280;51059;42.058;27.986;2024-01-30T15:33:57;60162.44;;;-131.55
32827;BMP280;51059;42.058;27.986;2024-01-30T15:37:16;60162.44;;;-131.55
32827;BMP280;51059;42.058;27.986;2024-01-30T15:39:41;60162.44;;;-131.55
32827;BMP280;51059;42.058;27.986;2024-01-30T15:43:00;60162.44;;;-131.55
32827;BMP280;51059;42.058;27.986;2024-01-30T15:45:37;60162.44;;;-131.55
32827;BMP280;51059;42.058;27.986;2024-01-30T15:48:04;60162.44;;;-131.55
32827;BMP280;51059;42.058;27.986;2024-01-30T15:50:29;60162.44;;;-131.55
32827;BMP280;51059;42.058;27.986;2024-01-30T15:52:55;60162.44;;;-131.55
32827;BMP280;51059;42.058;27.986;2024-01-30T15:55:21;60162.44;;;-131.55
32827;BMP280;51059;42.058;27.986;2024-01-30T15:57:47;60162.44;;;-131.55
32827;BMP280;51059;42.058;27.986;2024-01-30T16:00:15;60162.44;;;-131.55
32827;BMP280;51059;42.058;27.986;2024-01-30T16:02:41;60162.44;;;-131.55
32827;BMP280;51059;42.058;27.986;2024-01-30T16:05:07;60162.44;;;-131.55
32827;BMP280;51059;42.058;27.986;2024-01-30T16:07:38;60162.44;;;-131.55
32827;BMP280;51059;42.058;27.986;2024-01-30T16:10:04;60162.44;;;-131.55
32827;BMP280;51059;42.058;27.986;2024-01-30T16:12:30;60162.44;;;-131.55
32827;BMP280;51059;42.058;27.986;2024-01-30T16:14:56;60162.44;;;-131.55
32827;BMP280;51059;42.058;27.986;2024-01-30T16:17:22;60162.44;;;-131.55
32827;BMP280;51059;42.058;27.986;2024-01-30T16:19:48;60162.44;;;-131.55
32827;BMP280;51059;42.058;27.986;2024-01-30T16:22:16;60162.44;;;-131.55
32827;BMP280;51059;42.058;27.986;2024-01-30T16:24:42;60162.44;;;-131.55
32827;BMP280;51059;42.058;27.986;2024-01-30T16:27:09;60162.44;;;-131.55
32827;BMP280;51059;42.058;27.986;2024-01-30T16:29:35;60162.44;;;-131.55
32827;BMP280;51059;42.058;27.986;2024-01-30T16:32:04;60162.44;;;-131.55
32827;BMP280;51059;42.058;27.986;2024-01-30T16:34:29;60162.44;;;-131.55
32827;BMP280;51059;42.058;27.986;2024-01-30T16:36:55;60162.44;;;-131.55
32827;BMP280;51059;42.058;27.986;2024-01-30T16:39:21;60162.44;;;-131.55
32827;BMP280;51059;42.058;27.986;2024-01-30T16:42:06;60162.44;;;-131.55
32827;BMP280;51059;42.058;27.986;2024-01-30T16:45:25;60162.44;;;-131.55
32827;BMP280;51059;42.058;27.986;2024-01-30T16:47:51;60162.44;;;-131.55
32827;BMP280;51059;42.058;27.986;2024-01-30T16:50:17;60162.44;;;-131.55
32827;BMP280;51059;42.058;27.986;2024-01-30T16:52:42;60162.44;;;-131.55
32827;BMP280;51059;42.058;27.986;2024-01-30T16:55:08;60162.44;;;-131.55
32827;BMP280;51059;42.058;27.986;2024-01-30T16:57:34;60162.44;;;-131.55
32827;BMP280;51059;42.058;27.986;2024-01-30T17:00:00;60162.44;;;-131.55
32827;BMP280;51059;42.058;27.986;2024-01-30T17:02:26;60162.44;;;-131.55
32827;BMP280;51059;42.058;27.986;2024-01-30T17:04:52;60162.44;;;-131.55
32827;BMP280;51059;42.058;27.986;2024-01-30T17:07:17;60162.44;;;-131.55
32827;BMP280;51059;42.058;27.986;2024-01-30T17:09:43;60162.44;;;-131.55
32827;BMP280;51059;42.058;27.986;2024-01-30T17:12:09;60162.44;;;-131.55
32827;BMP280;51059;42.058;27.986;2024-01-30T17:14:37;60162.44;;;-131.55
32827;BMP280;51059;42.058;27.986;2024-01-30T17:17:04;60162.44;;;-131.55
32827;BMP280;51059;42.058;27.986;2024-01-30T17:19:30;60162.44;;;-131.55
32827;BMP280;51059;42.058;27.986;2024-01-30T17:21:56;60162.44;;;-131.55
32827;BMP280;51059;42.058;27.986;2024-01-30T17:24:22;60162.44;;;-131.55
32827;BMP280;51059;42.058;27.986;2024-01-30T17:26:48;60162.44;;;-131.55
32827;BMP280;51059;42.058;27.986;2024-01-30T17:29:15;60162.44;;;-131.55
32827;BMP280;51059;42.058;27.986;2024-01-30T17:31:41;60162.44;;;-131.55
32827;BMP280;51059;42.058;27.986;2024-01-30T17:34:10;60162.44;;;-131.55
32827;BMP280;51059;42.058;27.986;2024-01-30T17:36:36;60162.44;;;-131.55
32827;BMP280;51059;42.058;27.986;2024-01-30T17:39:02;60162.44;;;-131.55
32827;BMP280;51059;42.058;27.986;2024-01-30T17:41:28;60162.44;;;-131.55
32827;BMP280;51059;42.058;27.986;2024-01-30T17:43:54;60162.44;;;-131.55
32827;BMP280;51059;42.058;27.986;2024-01-30T17:46:20;60162.44;;;-131.55
32827;BMP280;51059;42.058;27.986;2024-01-30T17:48:46;60162.44;;;-131.55
32827;BMP280;51059;42.058;27.986;2024-01-30T17:51:12;60162.44;;;-131.55
32827;BMP280;51059;42.058;27.986;2024-01-30T17:53:38;60162.44;;;-131.55
32827;BMP280;51059;42.058;27.986;2024-01-30T17:56:04;60162.44;;;-131.55
32827;BMP280;51059;42.058;27.986;2024-01-30T17:58:31;60162.44;;;-131.55
32827;BMP280;51059;42.058;27.986;2024-01-30T18:00:58;60162.44;;;-131.55
32827;BMP280;51059;42.058;27.986;2024-01-30T18:03:26;60162.44;;;-131.55
32827;BMP280;51059;42.058;27.986;2024-01-30T18:05:52;60162.44;;;-131.55
32827;BMP280;51059;42.058;27.986;2024-01-30T18:08:19;60162.44;;;-131.55
32827;BMP280;51059;42.058;27.986;2024-01-30T18:10:46;60162.44;;;-131.55
32827;BMP280;51059;42.058;27.986;2024-01-30T18:14:05;60162.44;;;-131.55
32827;BMP280;51059;42.058;27.986;2024-01-30T18:17:15;60162.44;;;-131.55
32827;BMP280;51059;42.058;27.986;2024-01-30T18:20:33;60162.44;;;-131.55
32827;BMP280;51059;42.058;27.986;2024-01-30T18:23:51;60162.44;;;-131.55
32827;BMP280;51059;42.058;27.986;2024-01-30T18:27:12;60162.44;;;-131.55
32827;BMP280;51059;42.058;27.986;2024-01-30T18:30:30;60162.44;;;-131.55
32827;BMP280;51059;42.058;27.986;2024-01-30T18:33:48;60162.44;;;-131.55
32827;BMP280;51059;42.058;27.986;2024-01-30T18:37:15;60162.44;;;-131.55
32827;BMP280;51059;42.058;27.986;2024-01-30T18:40:34;60162.44;;;-131.55
32827;BMP280;51059;42.058;27.986;2024-01-30T18:43:53;60162.44;;;-131.55
32827;BMP280;51059;42.058;27.986;2024-01-30T18:47:11;60162.44;;;-131.55
32827;BMP280;51059;42.058;27.986;2024-01-30T18:50:29;60162.44;;;-131.55
32827;BMP280;51059;42.058;27.986;2024-01-30T18:53:47;60162.44;;;-131.55
32827;BMP280;51059;42.058;27.986;2024-01-30T18:57:14;60162.44;;;-131.55
32827;BMP280;51059;42.058;27.986;2024-01-30T19:00:35;60162.44;;;-131.55
32827;BMP280;51059;42.058;27.986;2024-01-30T19:03:58;60162.44;;;-131.55
32827;BMP280;51059;42.058;27.986;2024-01-30T19:07:17;60162.44;;;-131.55
32827;BMP280;51059;42.058;27.986;2024-01-30T19:10:35;60162.44;;;-131.55
32827;BMP280;51059;42.058;27.986;2024-01-30T19:13:54;60162.44;;;-131.55
32827;BMP280;51059;42.058;27.986;2024-01-30T19:17:12;60162.44;;;-131.55
32827;BMP280;51059;42.058;27.986;2024-01-30T19:20:32;60162.44;;;-131.55
32827;BMP280;51059;42.058;27.986;2024-01-30T19:23:50;60162.44;;;-131.55
32827;BMP280;51059;42.058;27.986;2024-01-30T19:27:11;60162.44;;;-131.55
32827;BMP280;51059;42.058;27.986;2024-01-30T19:30:29;60162.44;;;-131.55
32827;BMP280;51059;42.058;27.986;2024-01-30T19:33:47;60162.44;;;-131.55
32827;BMP280;51059;42.058;27.986;2024-01-30T19:37:05;60162.44;;;-131.55
32827;BMP280;51059;42.058;27.986;2024-01-30T19:40:24;60162.44;;;-131.55
32827;BMP280;51059;42.058;27.986;2024-01-30T19:43:43;60162.44;;;-131.55
32827;BMP280;51059;42.058;27.986;2024-01-30T19:47:03;60162.44;;;-131.55
32827;BMP280;51059;42.058;27.986;2024-01-30T19:50:28;60162.44;;;-131.55
32827;BMP280;51059;42.058;27.986;2024-01-30T19:53:46;60162.44;;;-131.55